• Join FlightAware (Why Join?)
  • Login
  • US Flag 
07:23PM EDT


 

Airport Tracker/Info


-or-


 

Live Flight TrackerFlight Track Log ✈ ASQ5874 ✈ 05-Jun-2013 ✈ KIAD - KCMH

Flight Track Log - Related Links

Times and Time Zones

All times are in EDT time to prevent confusion due to time zone crossing. See the ASQ5874 flight status page for this flight to view local times or setup timezone preferences in your user account.

Time Position Orientation Groundspeed Altitude Reporting Facility
EDT Latitude Longitude Course Direction KTS MPH feet Rate Location/Type
01:52PM 38.9333 -77.5500 270° West 206 237 2,400  Level Potomac TRACON
01:55PM 38.8667 -77.9168 293° West  Level FlightAware Approximate
01:55PM 38.8756 -77.7300 248° West 455 524 26,000  Level Washington Center
01:56PM 38.8995 -78.0311 288° West  Level FlightAware Approximate
01:56PM 38.8739 -77.8261 269° West 366 421 9,600  Level Washington Center
01:57PM 38.9285 -78.1472 288° West  Level FlightAware Approximate
01:57PM 38.8717 -77.9381 269° West 326 375 10,800  Level Washington Center
01:58PM 38.9500 -78.2619 270° West  Level FlightAware Approximate
01:58PM 38.9072 -78.0458 293° West 326 375 12,200  Level Washington Center
01:59PM 38.9422 -78.1617 291° West 338 389 13,600 1,320 Climbing Washington Center
02:00PM 38.9647 -78.2828 283° West 350 403 14,900 1,320 Climbing Washington Center
02:01PM 38.9681 -78.4111 272° West 355 409 16,300 1,260 Climbing Washington Center
02:02PM 38.9711 -78.5367 272° West 355 409 17,500 1,020 Climbing Washington Center
02:03PM 38.9742 -78.6650 272° West 355 409 18,400 960 Climbing Washington Center
02:04PM 38.9792 -78.7958 273° West 365 420 19,500 1,140 Climbing Washington Center
02:05PM 38.9819 -78.9269 272° West 365 420 20,700 1,080 Climbing Washington Center
02:06PM 38.9864 -79.0581 273° West 365 420 21,700 1,260 Climbing Washington Center
02:07PM 38.9889 -79.1917 271° West 370 426 23,200 1,380 Climbing Washington Center
02:08PM 38.9933 -79.3200 273° West 370 426 24,600 1,260 Climbing Washington Center
02:09PM 38.9953 -79.4511 271° West 365 420 25,700 660 Climbing Washington Center
02:10PM 38.9972 -79.5822 271° West 365 420 26,000 60 Climbing Washington Center
02:11PM 39.0000 -79.8528 271° West 411 473 26,000  Level Indianapolis Center
02:13PM 39.0033 -80.0300 271° West 425 489 26,000  Level Indianapolis Center
02:14PM 39.0042 -80.1792 270° West 430 495 26,000  Level Indianapolis Center
02:15PM 39.0067 -80.3336 271° West 433 498 26,000  Level Indianapolis Center
02:16PM 39.0078 -80.4897 271° West 437 503 26,000  Level Indianapolis Center
02:17PM 39.0086 -80.6458 270° West 437 503 26,000  Level Indianapolis Center
02:18PM 39.0111 -80.8033 271° West 440 506 26,000 -300 Level Indianapolis Center
02:19PM 39.0381 -80.9858 281° West 452 520 25,400 -780 Descending Indianapolis Center
02:20PM 39.0967 -81.1281 298° West 453 521 24,400 -1,020 Descending Indianapolis Center
02:21PM 39.1542 -81.2686 298° West 448 516 23,300 -1,020 Descending Indianapolis Center
02:22PM 39.2089 -81.4044 298° West 435 501 22,400 -1,020 Descending Indianapolis Center
02:23PM 39.2628 -81.5361 298° West 423 487 21,300 -1,140 Descending Indianapolis Center
02:24PM 39.3264 -81.6911 298° West 412 474 20,100 -1,080 Descending Indianapolis Center
02:25PM 39.3778 -81.8189 298° West 404 465 19,100 -1,020 Descending Indianapolis Center
02:26PM 39.4203 -81.9328 296° West 398 458 18,200 -1,200 Descending Indianapolis Center
02:27PM 39.4792 -82.0711 299° West 396 456 16,700 -1,740 Descending Indianapolis Center
02:28PM 39.5236 -82.1942 295° West 393 452 14,500 -2,520 Descending Indianapolis Center
02:29PM 39.5728 -82.3125 298° West 367 422 11,900 -1,920 Descending Indianapolis Center
02:30PM 39.6367 -82.4275 306° West 330 380 10,500 -900 Descending Indianapolis Center
02:31PM 39.6992 -82.5258 310° West 328 377 10,000 -300 Descending Indianapolis Center
02:32PM 39.7539 -82.6189 307° West 345 397 10,000  Level Indianapolis Center
02:33PM 39.8161 -82.7233 308° West 348 400 10,000 -720 Level Indianapolis Center
02:34PM 39.8447 -82.8178 292° West 278 320 8,500 -1,560 Descending Indianapolis Center
02:35PM 39.8697 -82.9117 289° West 271 312 6,700 -1,860 Descending Indianapolis Center
02:36PM 39.8917 -83.0008 288° West 259 298 5,000 -1,980 Descending Indianapolis Center